sensor_id;sensor_type;location;lat;lon;timestamp;pressure;altitude;pressure_sealevel;temperature;humidity
15604;BME280;7902;49.042;9.092;2022-07-23T00:01:32;98960.47;;;28.77;43.23
15604;BME280;7902;49.042;9.092;2022-07-23T00:03:58;98962.13;;;28.78;43.26
15604;BME280;7902;49.042;9.092;2022-07-23T00:06:24;98962.88;;;28.85;43.14
15604;BME280;7902;49.042;9.092;2022-07-23T00:08:50;98958.25;;;28.74;43.16
15604;BME280;7902;49.042;9.092;2022-07-23T00:11:17;98950.75;;;28.76;42.69
15604;BME280;7902;49.042;9.092;2022-07-23T00:13:43;98947.22;;;28.75;42.66
15604;BME280;7902;49.042;9.092;2022-07-23T00:16:09;98948.25;;;28.74;42.82
15604;BME280;7902;49.042;9.092;2022-07-23T00:18:35;98954.81;;;28.67;42.65
15604;BME280;7902;49.042;9.092;2022-07-23T00:21:01;98961.84;;;28.68;42.48
15604;BME280;7902;49.042;9.092;2022-07-23T00:23:27;98957.25;;;28.68;42.65
15604;BME280;7902;49.042;9.092;2022-07-23T00:25:54;98964.78;;;28.66;42.26
15604;BME280;7902;49.042;9.092;2022-07-23T00:28:20;98955.94;;;28.59;42.75
15604;BME280;7902;49.042;9.092;2022-07-23T00:30:46;98951.28;;;28.66;41.53
15604;BME280;7902;49.042;9.092;2022-07-23T00:33:12;98949.56;;;28.54;42.77
15604;BME280;7902;49.042;9.092;2022-07-23T00:35:40;98955.59;;;28.56;42.55
15604;BME280;7902;49.042;9.092;2022-07-23T00:38:07;98947.69;;;28.54;42.79
15604;BME280;7902;49.042;9.092;2022-07-23T00:40:35;98945.13;;;28.59;42.61
15604;BME280;7902;49.042;9.092;2022-07-23T00:43:02;98953.78;;;28.50;43.04
15604;BME280;7902;49.042;9.092;2022-07-23T00:45:28;98943.94;;;28.44;43.01
15604;BME280;7902;49.042;9.092;2022-07-23T00:47:54;98941.59;;;28.59;43.01
15604;BME280;7902;49.042;9.092;2022-07-23T00:50:20;98940.28;;;28.50;43.39
15604;BME280;7902;49.042;9.092;2022-07-23T00:52:46;98941.13;;;28.50;42.84
15604;BME280;7902;49.042;9.092;2022-07-23T00:55:13;98944.06;;;28.49;43.00
15604;BME280;7902;49.042;9.092;2022-07-23T00:57:41;98940.84;;;28.40;43.59
15604;BME280;7902;49.042;9.092;2022-07-23T01:00:10;98940.75;;;28.47;42.89
15604;BME280;7902;49.042;9.092;2022-07-23T01:02:37;98940.00;;;28.40;43.59
15604;BME280;7902;49.042;9.092;2022-07-23T01:05:03;98943.66;;;28.33;43.30
15604;BME280;7902;49.042;9.092;2022-07-23T01:07:29;98954.69;;;28.32;43.09
15604;BME280;7902;49.042;9.092;2022-07-23T01:09:55;98952.34;;;28.35;42.98
15604;BME280;7902;49.042;9.092;2022-07-23T01:12:21;98946.22;;;28.28;43.66
15604;BME280;7902;49.042;9.092;2022-07-23T01:14:58;98938.94;;;28.29;43.64
15604;BME280;7902;49.042;9.092;2022-07-23T01:17:24;98936.47;;;28.27;43.62
15604;BME280;7902;49.042;9.092;2022-07-23T01:19:50;98932.56;;;28.23;43.43
15604;BME280;7902;49.042;9.092;2022-07-23T01:22:18;98937.97;;;28.23;43.33
15604;BME280;7902;49.042;9.092;2022-07-23T01:24:44;98933.63;;;28.22;44.07
15604;BME280;7902;49.042;9.092;2022-07-23T01:27:10;98916.50;;;28.28;43.40
15604;BME280;7902;49.042;9.092;2022-07-23T01:29:38;98915.19;;;28.19;43.60
15604;BME280;7902;49.042;9.092;2022-07-23T01:32:05;98913.53;;;28.18;43.54
15604;BME280;7902;49.042;9.092;2022-07-23T01:34:31;98912.91;;;28.16;44.12
15604;BME280;7902;49.042;9.092;2022-07-23T01:36:57;98908.34;;;28.17;43.79
15604;BME280;7902;49.042;9.092;2022-07-23T01:39:23;98899.28;;;28.11;43.85
15604;BME280;7902;49.042;9.092;2022-07-23T01:41:49;98902.28;;;28.03;44.07
15604;BME280;7902;49.042;9.092;2022-07-23T01:44:15;98908.72;;;28.02;44.21
15604;BME280;7902;49.042;9.092;2022-07-23T01:46:41;98921.03;;;27.98;44.24
15604;BME280;7902;49.042;9.092;2022-07-23T01:49:07;98926.69;;;27.97;43.95
15604;BME280;7902;49.042;9.092;2022-07-23T01:51:33;98927.09;;;27.93;44.60
15604;BME280;7902;49.042;9.092;2022-07-23T01:53:59;98924.66;;;27.92;44.63
15604;BME280;7902;49.042;9.092;2022-07-23T01:56:25;98927.22;;;27.87;44.74
15604;BME280;7902;49.042;9.092;2022-07-23T01:58:51;98932.00;;;27.85;44.41
15604;BME280;7902;49.042;9.092;2022-07-23T02:01:17;98921.72;;;27.93;44.11
15604;BME280;7902;49.042;9.092;2022-07-23T02:03:43;98919.53;;;28.02;44.04
15604;BME280;7902;49.042;9.092;2022-07-23T02:06:09;98931.25;;;27.96;44.38
15604;BME280;7902;49.042;9.092;2022-07-23T02:08:35;98934.38;;;27.93;44.02
15604;BME280;7902;49.042;9.092;2022-07-23T02:11:00;98949.47;;;27.82;44.42
15604;BME280;7902;49.042;9.092;2022-07-23T02:13:26;98953.53;;;27.73;45.07
15604;BME280;7902;49.042;9.092;2022-07-23T02:15:54;98943.69;;;27.79;44.98
15604;BME280;7902;49.042;9.092;2022-07-23T02:18:20;98951.47;;;27.69;44.50
15604;BME280;7902;49.042;9.092;2022-07-23T02:20:46;98947.56;;;27.83;44.86
15604;BME280;7902;49.042;9.092;2022-07-23T02:23:12;98944.34;;;27.74;44.83
15604;BME280;7902;49.042;9.092;2022-07-23T02:25:38;98943.09;;;27.77;44.59
15604;BME280;7902;49.042;9.092;2022-07-23T02:28:04;98944.00;;;27.71;45.09
15604;BME280;7902;49.042;9.092;2022-07-23T02:30:30;98948.34;;;27.72;45.20
15604;BME280;7902;49.042;9.092;2022-07-23T02:32:56;98949.09;;;27.79;44.90
15604;BME280;7902;49.042;9.092;2022-07-23T02:35:22;98950.44;;;27.88;44.33
15604;BME280;7902;49.042;9.092;2022-07-23T02:37:48;98950.53;;;27.81;44.95
15604;BME280;7902;49.042;9.092;2022-07-23T02:40:14;98952.25;;;27.76;45.54
15604;BME280;7902;49.042;9.092;2022-07-23T02:42:39;98961.47;;;27.68;45.01
15604;BME280;7902;49.042;9.092;2022-07-23T02:45:06;98972.16;;;27.75;45.01
15604;BME280;7902;49.042;9.092;2022-07-23T02:47:32;98978.84;;;27.72;45.26
15604;BME280;7902;49.042;9.092;2022-07-23T02:49:58;98987.47;;;27.81;45.29
15604;BME280;7902;49.042;9.092;2022-07-23T02:52:24;99002.53;;;27.70;45.45
15604;BME280;7902;49.042;9.092;2022-07-23T02:54:50;98996.69;;;27.73;45.20
15604;BME280;7902;49.042;9.092;2022-07-23T02:57:16;99007.09;;;27.70;45.55
15604;BME280;7902;49.042;9.092;2022-07-23T02:59:42;99010.25;;;27.67;45.79
15604;BME280;7902;49.042;9.092;2022-07-23T03:02:08;99005.44;;;27.69;45.49
15604;BME280;7902;49.042;9.092;2022-07-23T03:04:34;99010.97;;;27.56;46.01
15604;BME280;7902;49.042;9.092;2022-07-23T03:07:00;99015.16;;;27.52;45.96
15604;BME280;7902;49.042;9.092;2022-07-23T03:09:26;99007.69;;;27.54;45.71
15604;BME280;7902;49.042;9.092;2022-07-23T03:14:18;99013.75;;;27.49;45.98
15604;BME280;7902;49.042;9.092;2022-07-23T03:16:43;99017.03;;;27.51;45.94
15604;BME280;7902;49.042;9.092;2022-07-23T03:19:10;99010.22;;;27.48;46.20
15604;BME280;7902;49.042;9.092;2022-07-23T03:21:35;99011.63;;;27.51;46.08
15604;BME280;7902;49.042;9.092;2022-07-23T03:24:07;99017.28;;;27.49;45.97
15604;BME280;7902;49.042;9.092;2022-07-23T03:26:34;99020.88;;;27.37;46.03
15604;BME280;7902;49.042;9.092;2022-07-23T03:29:00;99030.22;;;27.34;46.49
15604;BME280;7902;49.042;9.092;2022-07-23T03:31:26;99028.94;;;27.37;46.79
15604;BME280;7902;49.042;9.092;2022-07-23T03:33:52;99021.81;;;27.24;46.91
15604;BME280;7902;49.042;9.092;2022-07-23T03:36:18;99026.38;;;27.24;47.07
15604;BME280;7902;49.042;9.092;2022-07-23T03:38:44;99035.13;;;27.19;46.75
15604;BME280;7902;49.042;9.092;2022-07-23T03:41:10;99039.97;;;27.11;47.33
15604;BME280;7902;49.042;9.092;2022-07-23T03:43:36;99048.63;;;27.13;47.47
15604;BME280;7902;49.042;9.092;2022-07-23T03:46:02;99048.09;;;27.04;47.34
15604;BME280;7902;49.042;9.092;2022-07-23T03:48:28;99038.91;;;27.12;47.07
15604;BME280;7902;49.042;9.092;2022-07-23T03:50:54;99038.09;;;27.11;47.16
15604;BME280;7902;49.042;9.092;2022-07-23T03:53:20;99054.25;;;27.11;47.57
15604;BME280;7902;49.042;9.092;2022-07-23T03:55:46;99053.84;;;27.07;47.10
15604;BME280;7902;49.042;9.092;2022-07-23T03:58:12;99048.53;;;27.01;47.59
15604;BME280;7902;49.042;9.092;2022-07-23T04:00:38;99057.22;;;27.03;47.18
15604;BME280;7902;49.042;9.092;2022-07-23T04:03:03;99054.94;;;27.06;46.90
15604;BME280;7902;49.042;9.092;2022-07-23T04:05:29;99059.25;;;27.07;46.90
15604;BME280;7902;49.042;9.092;2022-07-23T04:07:55;99048.88;;;27.11;47.05
15604;BME280;7902;49.042;9.092;2022-07-23T04:10:21;99054.69;;;27.08;46.77
15604;BME280;7902;49.042;9.092;2022-07-23T04:12:47;99055.34;;;27.03;46.76
15604;BME280;7902;49.042;9.092;2022-07-23T04:15:13;99063.25;;;26.98;46.83
15604;BME280;7902;49.042;9.092;2022-07-23T04:17:39;99069.88;;;27.02;47.32
15604;BME280;7902;49.042;9.092;2022-07-23T04:20:05;99071.56;;;26.97;46.87
15604;BME280;7902;49.042;9.092;2022-07-23T04:22:31;99071.78;;;26.95;46.73
15604;BME280;7902;49.042;9.092;2022-07-23T04:24:57;99064.06;;;26.99;46.96
15604;BME280;7902;49.042;9.092;2022-07-23T04:27:23;99057.47;;;26.95;46.96
15604;BME280;7902;49.042;9.092;2022-07-23T04:29:49;99053.38;;;26.86;46.88
15604;BME280;7902;49.042;9.092;2022-07-23T04:32:15;99066.41;;;26.89;46.59
15604;BME280;7902;49.042;9.092;2022-07-23T04:34:41;99078.84;;;26.90;46.49
15604;BME280;7902;49.042;9.092;2022-07-23T04:37:07;99069.22;;;27.07;46.57
15604;BME280;7902;49.042;9.092;2022-07-23T04:39:33;99075.94;;;26.91;47.12
15604;BME280;7902;49.042;9.092;2022-07-23T04:41:59;99087.75;;;26.97;46.90
15604;BME280;7902;49.042;9.092;2022-07-23T04:44:25;99088.41;;;26.86;47.53
15604;BME280;7902;49.042;9.092;2022-07-23T04:46:51;99099.19;;;26.79;47.30
15604;BME280;7902;49.042;9.092;2022-07-23T04:49:17;99105.59;;;26.85;47.62
15604;BME280;7902;49.042;9.092;2022-07-23T04:51:43;99105.59;;;26.85;47.09
15604;BME280;7902;49.042;9.092;2022-07-23T04:54:08;99104.16;;;26.82;47.66
15604;BME280;7902;49.042;9.092;2022-07-23T04:56:34;99107.31;;;26.73;47.50
15604;BME280;7902;49.042;9.092;2022-07-23T04:59:00;99110.59;;;26.81;47.61
15604;BME280;7902;49.042;9.092;2022-07-23T05:01:26;99111.22;;;26.77;47.80
15604;BME280;7902;49.042;9.092;2022-07-23T05:03:52;99118.47;;;26.83;47.42
15604;BME280;7902;49.042;9.092;2022-07-23T05:06:18;99103.16;;;26.77;47.73
15604;BME280;7902;49.042;9.092;2022-07-23T05:08:44;99095.88;;;26.84;47.13
15604;BME280;7902;49.042;9.092;2022-07-23T05:11:10;99085.50;;;26.81;47.33
15604;BME280;7902;49.042;9.092;2022-07-23T05:13:36;99066.44;;;26.82;47.40
15604;BME280;7902;49.042;9.092;2022-07-23T05:16:02;99081.16;;;26.80;47.34
15604;BME280;7902;49.042;9.092;2022-07-23T05:18:28;99095.63;;;26.85;47.15
15604;BME280;7902;49.042;9.092;2022-07-23T05:20:54;99103.94;;;26.90;46.77
15604;BME280;7902;49.042;9.092;2022-07-23T05:23:20;99109.34;;;26.84;47.09
15604;BME280;7902;49.042;9.092;2022-07-23T05:25:46;99127.19;;;26.78;47.53
15604;BME280;7902;49.042;9.092;2022-07-23T05:28:12;99130.28;;;26.88;47.26
15604;BME280;7902;49.042;9.092;2022-07-23T05:30:38;99126.31;;;26.97;46.88
15604;BME280;7902;49.042;9.092;2022-07-23T05:33:03;99141.69;;;26.84;47.54
15604;BME280;7902;49.042;9.092;2022-07-23T05:35:29;99137.91;;;26.85;47.50
15604;BME280;7902;49.042;9.092;2022-07-23T05:37:55;99133.19;;;26.87;47.40
15604;BME280;7902;49.042;9.092;2022-07-23T05:40:21;99142.91;;;26.81;47.48
15604;BME280;7902;49.042;9.092;2022-07-23T05:42:47;99150.03;;;26.69;47.97
15604;BME280;7902;49.042;9.092;2022-07-23T05:45:13;99163.91;;;26.73;48.07
15604;BME280;7902;49.042;9.092;2022-07-23T05:47:47;99172.56;;;26.75;48.11
15604;BME280;7902;49.042;9.092;2022-07-23T05:50:14;99170.38;;;26.52;48.63
15604;BME280;7902;49.042;9.092;2022-07-23T05:52:40;99164.72;;;26.73;48.36
15604;BME280;7902;49.042;9.092;2022-07-23T05:55:08;99153.13;;;26.73;48.50
15604;BME280;7902;49.042;9.092;2022-07-23T05:57:35;99157.66;;;26.79;48.66
15604;BME280;7902;49.042;9.092;2022-07-23T06:00:01;99155.56;;;26.81;49.15
15604;BME280;7902;49.042;9.092;2022-07-23T06:02:27;99156.47;;;26.61;50.24
15604;BME280;7902;49.042;9.092;2022-07-23T06:04:53;99166.84;;;26.64;50.31
15604;BME280;7902;49.042;9.092;2022-07-23T06:07:19;99179.91;;;26.54;50.60
15604;BME280;7902;49.042;9.092;2022-07-23T06:09:45;99165.41;;;26.55;51.11
15604;BME280;7902;49.042;9.092;2022-07-23T06:12:12;99147.00;;;26.39;52.21
15604;BME280;7902;49.042;9.092;2022-07-23T06:14:38;99140.22;;;26.30;52.75
15604;BME280;7902;49.042;9.092;2022-07-23T06:17:04;99140.41;;;26.29;52.77
15604;BME280;7902;49.042;9.092;2022-07-23T06:19:30;99135.44;;;26.19;53.36
15604;BME280;7902;49.042;9.092;2022-07-23T06:21:56;99130.06;;;26.26;53.27
15604;BME280;7902;49.042;9.092;2022-07-23T06:24:22;99127.16;;;26.20;53.33
15604;BME280;7902;49.042;9.092;2022-07-23T06:26:48;99124.28;;;26.22;53.62
15604;BME280;7902;49.042;9.092;2022-07-23T06:29:14;99118.66;;;26.30;53.65
15604;BME280;7902;49.042;9.092;2022-07-23T06:31:40;99107.91;;;26.30;53.21
15604;BME280;7902;49.042;9.092;2022-07-23T06:34:06;99112.84;;;26.40;53.04
15604;BME280;7902;49.042;9.092;2022-07-23T06:36:31;99123.75;;;26.51;52.79
15604;BME280;7902;49.042;9.092;2022-07-23T06:38:57;99128.81;;;26.35;53.29
15604;BME280;7902;49.042;9.092;2022-07-23T06:41:23;99157.38;;;26.36;53.46
15604;BME280;7902;49.042;9.092;2022-07-23T06:43:49;99176.22;;;26.16;54.11
15604;BME280;7902;49.042;9.092;2022-07-23T06:46:15;99189.88;;;26.14;54.47
15604;BME280;7902;49.042;9.092;2022-07-23T06:48:41;99210.38;;;26.09;55.01
15604;BME280;7902;49.042;9.092;2022-07-23T06:51:07;99224.69;;;25.90;55.38
15604;BME280;7902;49.042;9.092;2022-07-23T06:53:33;99228.41;;;26.15;54.15
15604;BME280;7902;49.042;9.092;2022-07-23T06:55:59;99231.69;;;26.04;54.33
15604;BME280;7902;49.042;9.092;2022-07-23T06:58:25;99219.91;;;26.05;54.58
15604;BME280;7902;49.042;9.092;2022-07-23T07:00:51;99240.22;;;25.94;55.45
15604;BME280;7902;49.042;9.092;2022-07-23T07:03:18;99241.66;;;26.03;55.02
15604;BME280;7902;49.042;9.092;2022-07-23T07:05:44;99238.78;;;25.98;54.99
15604;BME280;7902;49.042;9.092;2022-07-23T07:08:10;99248.66;;;25.71;56.19
15604;BME280;7902;49.042;9.092;2022-07-23T07:10:36;99248.69;;;25.78;55.82
15604;BME280;7902;49.042;9.092;2022-07-23T07:13:02;99224.28;;;25.80;55.62
15604;BME280;7902;49.042;9.092;2022-07-23T07:15:28;99209.34;;;25.77;55.62
15604;BME280;7902;49.042;9.092;2022-07-23T07:17:54;99203.75;;;25.85;55.66
15604;BME280;7902;49.042;9.092;2022-07-23T07:20:20;99205.22;;;25.88;55.89
15604;BME280;7902;49.042;9.092;2022-07-23T07:22:46;99203.16;;;26.03;55.16
15604;BME280;7902;49.042;9.092;2022-07-23T07:25:11;99196.53;;;25.99;55.45
15604;BME280;7902;49.042;9.092;2022-07-23T07:27:37;99199.41;;;26.04;55.58
15604;BME280;7902;49.042;9.092;2022-07-23T07:30:05;99195.06;;;26.09;55.54
15604;BME280;7902;49.042;9.092;2022-07-23T07:32:32;99202.31;;;25.96;55.66
15604;BME280;7902;49.042;9.092;2022-07-23T07:34:58;99196.53;;;25.99;55.57
15604;BME280;7902;49.042;9.092;2022-07-23T07:37:24;99191.56;;;26.02;55.81
15604;BME280;7902;49.042;9.092;2022-07-23T07:39:50;99191.53;;;26.09;55.88
15604;BME280;7902;49.042;9.092;2022-07-23T07:42:16;99188.47;;;26.25;55.57
15604;BME280;7902;49.042;9.092;2022-07-23T07:44:42;99187.63;;;26.31;55.92
15604;BME280;7902;49.042;9.092;2022-07-23T07:47:08;99184.28;;;26.42;55.81
15604;BME280;7902;49.042;9.092;2022-07-23T07:49:34;99186.97;;;26.55;55.32
15604;BME280;7902;49.042;9.092;2022-07-23T07:52:00;99195.25;;;26.47;56.76
15604;BME280;7902;49.042;9.092;2022-07-23T07:54:25;99198.13;;;26.52;57.13
15604;BME280;7902;49.042;9.092;2022-07-23T07:56:51;99192.97;;;26.51;56.70
15604;BME280;7902;49.042;9.092;2022-07-23T07:59:17;99193.63;;;26.40;57.42
15604;BME280;7902;49.042;9.092;2022-07-23T08:01:43;99199.41;;;26.43;58.21
15604;BME280;7902;49.042;9.092;2022-07-23T08:04:09;99194.84;;;26.50;57.44
15604;BME280;7902;49.042;9.092;2022-07-23T08:06:35;99206.22;;;26.52;56.04
15604;BME280;7902;49.042;9.092;2022-07-23T08:09:01;99208.50;;;26.42;55.82
15604;BME280;7902;49.042;9.092;2022-07-23T08:11:27;99224.28;;;26.45;55.62
15604;BME280;7902;49.042;9.092;2022-07-23T08:13:53;99230.28;;;26.34;56.94
15604;BME280;7902;49.042;9.092;2022-07-23T08:16:19;99231.97;;;26.22;59.58
15604;BME280;7902;49.042;9.092;2022-07-23T08:18:44;99235.03;;;26.32;58.29
15604;BME280;7902;49.042;9.092;2022-07-23T08:21:10;99225.91;;;26.46;57.93
15604;BME280;7902;49.042;9.092;2022-07-23T08:23:36;99233.59;;;26.23;60.00
15604;BME280;7902;49.042;9.092;2022-07-23T08:26:02;99228.81;;;26.38;58.86
15604;BME280;7902;49.042;9.092;2022-07-23T08:28:28;99233.16;;;26.00;61.55
15604;BME280;7902;49.042;9.092;2022-07-23T08:30:54;99234.63;;;26.15;60.15
15604;BME280;7902;49.042;9.092;2022-07-23T08:33:20;99228.44;;;26.22;60.18
15604;BME280;7902;49.042;9.092;2022-07-23T08:35:48;99232.38;;;26.26;60.14
15604;BME280;7902;49.042;9.092;2022-07-23T08:38:17;99243.34;;;26.24;59.82
15604;BME280;7902;49.042;9.092;2022-07-23T08:40:49;99242.94;;;26.27;58.98
15604;BME280;7902;49.042;9.092;2022-07-23T08:43:25;99244.75;;;26.20;59.09
15604;BME280;7902;49.042;9.092;2022-07-23T08:45:54;99251.59;;;26.09;60.23
15604;BME280;7902;49.042;9.092;2022-07-23T08:48:26;99259.88;;;26.08;59.36
15604;BME280;7902;49.042;9.092;2022-07-23T08:50:57;99262.38;;;26.16;58.98
15604;BME280;7902;49.042;9.092;2022-07-23T08:53:24;99260.28;;;26.05;59.96
15604;BME280;7902;49.042;9.092;2022-07-23T08:55:54;99259.63;;;25.76;61.01
15604;BME280;7902;49.042;9.092;2022-07-23T08:58:22;99254.25;;;25.70;61.03
15604;BME280;7902;49.042;9.092;2022-07-23T09:00:48;99255.50;;;25.81;60.61
15604;BME280;7902;49.042;9.092;2022-07-23T09:03:18;99255.31;;;25.89;60.48
15604;BME280;7902;49.042;9.092;2022-07-23T09:05:44;99244.97;;;25.99;60.09
15604;BME280;7902;49.042;9.092;2022-07-23T09:08:12;99249.94;;;25.89;60.35
15604;BME280;7902;49.042;9.092;2022-07-23T09:10:45;99240.84;;;25.90;60.50
15604;BME280;7902;49.042;9.092;2022-07-23T09:16:12;99251.59;;;26.16;59.26
15604;BME280;7902;49.042;9.092;2022-07-23T09:18:48;99250.97;;;26.07;59.26
15604;BME280;7902;49.042;9.092;2022-07-23T09:24:00;99247.25;;;26.28;58.11
15604;BME280;7902;49.042;9.092;2022-07-23T09:26:41;99242.91;;;26.40;57.90
15604;BME280;7902;49.042;9.092;2022-07-23T09:29:19;99244.78;;;26.40;58.06
15604;BME280;7902;49.042;9.092;2022-07-23T09:36:42;99252.41;;;26.62;57.21
15604;BME280;7902;49.042;9.092;2022-07-23T09:39:09;99254.66;;;26.72;57.04
15604;BME280;7902;49.042;9.092;2022-07-23T09:41:37;99244.31;;;26.62;55.64
15604;BME280;7902;49.042;9.092;2022-07-23T09:44:17;99248.91;;;26.55;56.95
15604;BME280;7902;49.042;9.092;2022-07-23T09:46:45;99244.56;;;26.54;56.54
15604;BME280;7902;49.042;9.092;2022-07-23T09:49:21;99245.94;;;26.70;56.68
15604;BME280;7902;49.042;9.092;2022-07-23T09:51:48;99243.84;;;26.92;55.94
15604;BME280;7902;49.042;9.092;2022-07-23T09:56:51;99238.81;;;27.08;55.58
15604;BME280;7902;49.042;9.092;2022-07-23T09:59:18;99240.25;;;27.11;54.56
15604;BME280;7902;49.042;9.092;2022-07-23T10:01:47;99234.38;;;26.70;56.24
15604;BME280;7902;49.042;9.092;2022-07-23T10:04:14;99243.97;;;27.17;55.05
15604;BME280;7902;49.042;9.092;2022-07-23T10:06:40;99242.97;;;27.04;55.83
15604;BME280;7902;49.042;9.092;2022-07-23T10:09:12;99240.19;;;27.31;54.79
15604;BME280;7902;49.042;9.092;2022-07-23T10:11:38;99242.03;;;27.30;54.12
15604;BME280;7902;49.042;9.092;2022-07-23T10:14:05;99239.00;;;27.14;53.73
15604;BME280;7902;49.042;9.092;2022-07-23T10:16:31;99243.38;;;27.46;53.92
15604;BME280;7902;49.042;9.092;2022-07-23T10:18:57;99237.16;;;27.59;53.68
15604;BME280;7902;49.042;9.092;2022-07-23T10:22:18;99234.69;;;27.50;53.31
15604;BME280;7902;49.042;9.092;2022-07-23T10:32:52;99231.66;;;27.72;52.41
15604;BME280;7902;49.042;9.092;2022-07-23T10:38:03;99232.22;;;27.80;51.75
15604;BME280;7902;49.042;9.092;2022-07-23T10:40:32;99233.47;;;28.03;51.11
15604;BME280;7902;49.042;9.092;2022-07-23T10:42:59;99231.63;;;28.03;50.10
15604;BME280;7902;49.042;9.092;2022-07-23T10:45:33;99228.66;;;27.86;51.15
15604;BME280;7902;49.042;9.092;2022-07-23T10:48:14;99228.25;;;28.08;49.84
15604;BME280;7902;49.042;9.092;2022-07-23T10:50:41;99230.63;;;27.98;49.15
15604;BME280;7902;49.042;9.092;2022-07-23T10:53:07;99229.69;;;28.10;48.07
15604;BME280;7902;49.042;9.092;2022-07-23T10:58:01;99225.47;;;28.21;48.17
15604;BME280;7902;49.042;9.092;2022-07-23T11:00:29;99227.50;;;28.25;47.52
15604;BME280;7902;49.042;9.092;2022-07-23T11:03:00;99230.97;;;28.32;47.32
15604;BME280;7902;49.042;9.092;2022-07-23T11:05:40;99229.78;;;28.28;48.06
15604;BME280;7902;49.042;9.092;2022-07-23T11:10:39;99225.28;;;28.41;47.59
15604;BME280;7902;49.042;9.092;2022-07-23T11:34:34;99218.63;;;29.16;45.72
15604;BME280;7902;49.042;9.092;2022-07-23T11:37:02;99212.16;;;29.17;45.93
15604;BME280;7902;49.042;9.092;2022-07-23T11:39:29;99210.06;;;29.19;45.03
15604;BME280;7902;49.042;9.092;2022-07-23T11:41:56;99200.47;;;29.05;44.94
15604;BME280;7902;49.042;9.092;2022-07-23T11:46:59;99205.09;;;29.16;43.61
15604;BME280;7902;49.042;9.092;2022-07-23T11:49:26;99200.19;;;29.24;43.42
15604;BME280;7902;49.042;9.092;2022-07-23T11:54:31;99200.44;;;29.23;44.11
15604;BME280;7902;49.042;9.092;2022-07-23T11:56:59;99197.06;;;29.28;44.19
15604;BME280;7902;49.042;9.092;2022-07-23T11:59:30;99184.53;;;29.45;43.98
15604;BME280;7902;49.042;9.092;2022-07-23T12:02:04;99188.94;;;29.57;43.53
15604;BME280;7902;49.042;9.092;2022-07-23T12:04:44;99195.06;;;29.64;44.07
15604;BME280;7902;49.042;9.092;2022-07-23T12:09:48;99193.53;;;29.57;44.32
15604;BME280;7902;49.042;9.092;2022-07-23T12:12:14;99187.44;;;29.61;43.81
15604;BME280;7902;49.042;9.092;2022-07-23T12:14:58;99190.19;;;29.85;43.89
15604;BME280;7902;49.042;9.092;2022-07-23T12:17:30;99184.50;;;29.75;43.91
15604;BME280;7902;49.042;9.092;2022-07-23T12:19:57;99175.09;;;29.65;44.26
15604;BME280;7902;49.042;9.092;2022-07-23T12:22:25;99183.47;;;29.87;43.20
15604;BME280;7902;49.042;9.092;2022-07-23T12:24:57;99186.81;;;29.89;42.73
15604;BME280;7902;49.042;9.092;2022-07-23T12:27:23;99185.22;;;29.82;42.19
15604;BME280;7902;49.042;9.092;2022-07-23T12:29:50;99182.03;;;29.73;43.29
15604;BME280;7902;49.042;9.092;2022-07-23T12:32:27;99184.88;;;29.78;43.51
15604;BME280;7902;49.042;9.092;2022-07-23T12:37:31;99181.16;;;30.02;43.29
15604;BME280;7902;49.042;9.092;2022-07-23T12:39:57;99189.16;;;29.97;43.09
15604;BME280;7902;49.042;9.092;2022-07-23T12:42:24;99182.34;;;30.30;42.95
15604;BME280;7902;49.042;9.092;2022-07-23T12:45:07;99187.66;;;30.13;42.09
15604;BME280;7902;49.042;9.092;2022-07-23T12:48:00;99177.50;;;30.32;41.18
15604;BME280;7902;49.042;9.092;2022-07-23T12:50:40;99180.91;;;30.39;41.81
15604;BME280;7902;49.042;9.092;2022-07-23T12:53:16;99175.16;;;30.35;41.58
15604;BME280;7902;49.042;9.092;2022-07-23T12:55:43;99179.06;;;30.51;40.96
15604;BME280;7902;49.042;9.092;2022-07-23T12:58:15;99178.47;;;30.49;41.57
15604;BME280;7902;49.042;9.092;2022-07-23T13:01:02;99192.47;;;30.69;40.66
15604;BME280;7902;49.042;9.092;2022-07-23T13:03:40;99185.75;;;30.60;39.37
15604;BME280;7902;49.042;9.092;2022-07-23T13:06:10;99194.41;;;30.85;40.14
15604;BME280;7902;49.042;9.092;2022-07-23T13:08:38;99190.88;;;30.85;39.90
15604;BME280;7902;49.042;9.092;2022-07-23T13:11:05;99186.88;;;30.76;39.69
15604;BME280;7902;49.042;9.092;2022-07-23T13:13:34;99190.09;;;30.61;39.18
15604;BME280;7902;49.042;9.092;2022-07-23T13:16:01;99185.31;;;30.91;39.57
15604;BME280;7902;49.042;9.092;2022-07-23T13:18:28;99190.16;;;31.01;38.06
15604;BME280;7902;49.042;9.092;2022-07-23T13:20:54;99186.75;;;30.82;38.89
15604;BME280;7902;49.042;9.092;2022-07-23T13:23:21;99187.22;;;31.03;39.39
15604;BME280;7902;49.042;9.092;2022-07-23T13:25:48;99187.78;;;31.33;37.78
15604;BME280;7902;49.042;9.092;2022-07-23T13:28:15;99183.69;;;31.02;38.35
15604;BME280;7902;49.042;9.092;2022-07-23T13:30:41;99182.03;;;31.29;38.68
15604;BME280;7902;49.042;9.092;2022-07-23T13:33:07;99185.03;;;31.45;38.03
15604;BME280;7902;49.042;9.092;2022-07-23T13:35:35;99182.72;;;31.53;37.18
15604;BME280;7902;49.042;9.092;2022-07-23T13:38:02;99193.94;;;31.57;37.02
15604;BME280;7902;49.042;9.092;2022-07-23T13:40:28;99187.53;;;31.63;36.73
15604;BME280;7902;49.042;9.092;2022-07-23T13:42:54;99190.50;;;31.61;37.06
15604;BME280;7902;49.042;9.092;2022-07-23T13:45:20;99188.94;;;31.65;37.19
15604;BME280;7902;49.042;9.092;2022-07-23T13:47:47;99181.47;;;32.06;37.10
15604;BME280;7902;49.042;9.092;2022-07-23T13:50:12;99179.56;;;31.90;36.75
15604;BME280;7902;49.042;9.092;2022-07-23T13:52:41;99176.50;;;31.69;36.79
15604;BME280;7902;49.042;9.092;2022-07-23T13:55:07;99177.19;;;31.93;37.04
15604;BME280;7902;49.042;9.092;2022-07-23T13:57:33;99172.50;;;31.89;36.64
15604;BME280;7902;49.042;9.092;2022-07-23T13:59:59;99162.94;;;31.86;35.86
15604;BME280;7902;49.042;9.092;2022-07-23T14:02:25;99177.75;;;31.95;36.84
15604;BME280;7902;49.042;9.092;2022-07-23T14:04:52;99172.22;;;32.07;36.69
15604;BME280;7902;49.042;9.092;2022-07-23T14:07:18;99174.69;;;32.08;36.86
15604;BME280;7902;49.042;9.092;2022-07-23T14:09:44;99159.56;;;32.12;36.27
15604;BME280;7902;49.042;9.092;2022-07-23T14:12:10;99163.44;;;32.16;36.26
15604;BME280;7902;49.042;9.092;2022-07-23T14:14:36;99167.81;;;32.17;36.01